Time;durP1;ratioP1;P1;durP2;ratioP2;P2;SDS_P1;SDS_P2;PMS_P1;PMS_P2;Temp;Humidity;BMP_temperature;BMP_pressure;BME280_temperature;BME280_humidity;BME280_pressure;Samples;Min_cycle;Max_cycle;Signal;HPM_P1;HPM_P2
2022/04/22 00:01:56;;;;;;;10.73;4.05;;;;;;;9.95;100.00;101820.91;5073586;28;20066;-83
2022/04/22 00:04:22;;;;;;;9.18;3.40;;;;;;;10.32;100.00;101865.59;5073689;28;20053;-83
2022/04/22 00:06:49;;;;;;;9.82;3.53;;;;;;;10.18;100.00;101844.03;5074025;28;20052;-83
2022/04/22 00:09:16;;;;;;;10.73;3.20;;;;;;;10.12;100.00;101846.78;5073021;28;20084;-83
2022/04/22 00:11:43;;;;;;;9.32;2.80;;;;;;;10.22;100.00;101833.50;5074952;28;20053;-83
2022/04/22 00:14:10;;;;;;;9.93;3.08;;;;;;;10.02;100.00;101835.59;5073397;28;20477;-82
2022/04/22 00:16:36;;;;;;;7.85;3.08;;;;;;;10.11;100.00;101837.19;5073449;28;20052;-83
2022/04/22 00:19:03;;;;;;;10.90;3.55;;;;;;;10.01;100.00;101828.66;5073573;28;20478;-83
2022/04/22 00:21:30;;;;;;;9.48;3.35;;;;;;;9.99;100.00;101835.66;5072714;28;20401;-82
2022/04/22 00:23:57;;;;;;;9.85;3.60;;;;;;;9.93;100.00;101838.38;5073962;28;20053;-82
2022/04/22 00:26:24;;;;;;;12.00;3.83;;;;;;;9.92;100.00;101853.22;5073992;28;20053;-83
2022/04/22 00:28:52;;;;;;;11.23;4.10;;;;;;;9.97;100.00;101854.00;5073804;28;20591;-83
2022/04/22 00:31:18;;;;;;;10.93;3.28;;;;;;;9.92;100.00;101850.59;5072222;28;20413;-83
2022/04/22 00:33:45;;;;;;;9.35;3.50;;;;;;;9.73;100.00;101839.56;5073688;28;20044;-83
2022/04/22 00:36:12;;;;;;;10.52;3.10;;;;;;;9.70;100.00;101844.84;5072870;28;20068;-83
2022/04/22 00:38:39;;;;;;;10.73;3.17;;;;;;;9.66;100.00;101844.03;5072818;28;20514;-82
2022/04/22 00:41:06;;;;;;;14.88;3.53;;;;;;;9.25;100.00;101803.72;5072488;28;20057;-83
2022/04/22 00:43:44;;;;;;;7.80;2.97;;;;;;;9.26;100.00;101807.19;5074541;28;20059;-83
2022/04/22 00:46:12;;;;;;;8.52;2.83;;;;;;;9.39;100.00;101831.41;5072889;28;20048;-82
2022/04/22 00:48:39;;;;;;;10.30;3.35;;;;;;;9.44;100.00;101820.00;5073532;28;20379;-83
2022/04/22 00:51:07;;;;;;;11.43;3.55;;;;;;;9.17;100.00;101787.31;5071451;28;20051;-83
2022/04/22 00:53:38;;;;;;;8.65;3.25;;;;;;;9.51;100.00;101818.16;5072149;28;20044;-83
2022/04/22 00:56:10;;;;;;;11.23;3.80;;;;;;;9.44;100.00;101819.13;5052846;28;20049;-83
2022/04/22 00:58:39;;;;;;;8.23;3.17;;;;;;;9.60;100.00;101828.47;5053160;28;20052;-83
2022/04/22 01:01:08;;;;;;;10.95;3.65;;;;;;;9.42;100.00;101807.81;5069033;28;20135;-83
2022/04/22 01:03:35;;;;;;;8.88;3.30;;;;;;;9.62;100.00;101810.13;5074048;28;20059;-83
2022/04/22 01:11:37;;;;;;;9.82;3.58;;;;;;;9.42;100.00;101800.84;5072959;28;20057;-83
2022/04/22 01:14:05;;;;;;;10.15;3.67;;;;;;;9.42;100.00;101795.63;5072339;28;20051;-83
2022/04/22 01:16:34;;;;;;;8.57;3.70;;;;;;;9.10;100.00;101811.78;5072469;28;20048;-82
2022/04/22 01:19:00;;;;;;;14.35;3.90;;;;;;;9.09;100.00;101805.69;5072902;28;20052;-82
2022/04/22 01:21:27;;;;;;;9.55;3.40;;;;;;;8.80;100.00;101786.94;5071544;28;20048;-82
2022/04/22 01:23:54;;;;;;;10.07;3.67;;;;;;;8.58;100.00;101807.25;5069166;28;20063;-82
2022/04/22 01:26:20;;;;;;;8.55;3.38;;;;;;;8.49;100.00;101793.41;5052294;28;20056;-82
2022/04/22 01:28:48;;;;;;;9.30;3.25;;;;;;;8.41;100.00;101779.59;5052364;28;20055;-83
2022/04/22 01:31:14;;;;;;;13.55;3.65;;;;;;;8.26;100.00;101778.00;5068712;28;20045;-83
2022/04/22 01:33:41;;;;;;;9.00;3.33;;;;;;;7.94;100.00;101734.88;5072050;28;20106;-83
2022/04/22 01:36:08;;;;;;;10.45;3.45;;;;;;;8.30;100.00;101790.13;5072507;28;20052;-83
2022/04/22 01:38:37;;;;;;;9.60;3.20;;;;;;;8.05;100.00;101768.66;5072009;28;20506;-83
2022/04/22 01:41:04;;;;;;;13.80;4.38;;;;;;;8.04;100.00;101793.03;5072537;28;20094;-83
2022/04/22 01:43:31;;;;;;;9.50;3.35;;;;;;;8.16;100.00;101772.03;5073377;28;20385;-82
2022/04/22 01:45:58;;;;;;;9.98;3.60;;;;;;;7.85;100.00;101737.59;5071856;28;20051;-82
2022/04/22 01:48:24;;;;;;;8.10;3.22;;;;;;;8.31;100.00;101789.25;5073138;28;20449;-83
2022/04/22 01:50:51;;;;;;;10.77;3.92;;;;;;;7.91;100.00;101750.53;5070528;28;20414;-82
2022/04/22 01:53:18;;;;;;;11.57;4.53;;;;;;;8.20;100.00;101764.16;5072485;28;20470;-82
2022/04/22 01:55:45;;;;;;;8.75;3.10;;;;;;;8.49;100.00;101774.28;5064065;28;20049;-82
2022/04/22 01:58:12;;;;;;;11.25;3.95;;;;;;;8.27;100.00;101779.75;5051137;28;20053;-83
2022/04/22 02:00:39;;;;;;;14.20;4.28;;;;;;;8.25;100.00;101778.00;5064254;28;20064;-82
2022/04/22 02:03:06;;;;;;;11.57;3.30;;;;;;;8.13;100.00;101726.88;5071828;28;20052;-83
2022/04/22 02:05:33;;;;;;;11.93;3.47;;;;;;;8.13;100.00;101758.16;5072667;28;20052;-82
2022/04/22 02:08:01;;;;;;;13.07;3.60;;;;;;;8.28;100.00;101778.00;5071666;28;20048;-82
2022/04/22 02:10:28;;;;;;;10.48;3.65;;;;;;;8.07;100.00;101760.81;5070964;28;20135;-83
2022/04/22 02:12:54;;;;;;;9.60;3.55;;;;;;;8.07;100.00;101760.81;5072774;28;20052;-83
2022/04/22 02:15:21;;;;;;;9.27;3.50;;;;;;;8.18;100.00;101759.84;5073026;28;20049;-83
2022/04/22 02:17:48;;;;;;;10.68;3.47;;;;;;;8.04;100.00;101759.13;5071664;28;20048;-83
2022/04/22 02:20:15;;;;;;;10.18;3.55;;;;;;;8.21;100.00;101773.72;5069941;28;20052;-83
2022/04/22 02:22:42;;;;;;;9.10;3.58;;;;;;;7.57;100.00;101731.78;5070898;28;20048;-83
2022/04/22 02:25:09;;;;;;;11.10;3.65;;;;;;;7.77;100.00;101702.91;5071677;28;20048;-83
2022/04/22 02:30:23;;;;;;;8.93;3.67;;;;;;;7.95;100.00;101731.41;5075375;28;20044;-83
2022/04/22 02:32:50;;;;;;;10.70;3.47;;;;;;;8.18;100.00;101758.97;5079388;28;20087;-83
2022/04/22 02:35:21;;;;;;;11.27;3.85;;;;;;;7.86;100.00;101756.69;5091659;28;20052;-83
2022/04/22 02:37:49;;;;;;;8.55;3.60;;;;;;;8.06;100.00;101731.28;5093103;28;20044;-83
2022/04/22 02:45:26;;;;;;;9.65;3.50;;;;;;;7.70;100.00;101724.69;5080759;28;20417;-82
2022/04/22 02:45:50;;;;;;;9.95;4.05;;;;;;;7.76;100.00;101758.53;5071824;28;20063;-82
2022/04/22 02:48:16;;;;;;;10.32;3.67;;;;;;;7.91;100.00;101729.69;5072082;28;20048;-83
2022/04/22 02:50:43;;;;;;;10.93;4.35;;;;;;;7.63;100.00;101713.44;5070441;28;20048;-80
2022/04/22 02:53:10;;;;;;;11.68;3.83;;;;;;;7.79;100.00;101702.00;5071380;28;20494;-80
2022/04/22 02:55:44;;;;;;;14.27;5.03;;;;;;;7.94;100.00;101737.47;5070810;28;20049;-80
2022/04/22 02:58:10;;;;;;;11.07;4.32;;;;;;;7.71;100.00;101719.47;5071560;28;20053;-80
2022/04/22 03:00:37;;;;;;;12.25;3.83;;;;;;;8.29;100.00;101735.38;5069601;28;20101;-79
2022/04/22 03:03:04;;;;;;;8.23;3.50;;;;;;;7.64;100.00;101746.47;5071952;28;20501;-81
2022/04/22 03:05:31;;;;;;;10.05;3.45;;;;;;;7.89;100.00;101741.03;5070719;28;20059;-82
2022/04/22 03:07:58;;;;;;;9.95;3.30;;;;;;;7.73;100.00;101730.75;5070985;28;20055;-82
2022/04/22 03:10:25;;;;;;;9.85;3.60;;;;;;;8.13;100.00;101732.94;5069344;28;20530;-80
2022/04/22 03:12:51;;;;;;;12.07;3.85;;;;;;;8.23;100.00;101725.84;5069895;28;20052;-81
2022/04/22 03:15:18;;;;;;;11.30;4.25;;;;;;;8.13;100.00;101726.88;5070353;28;20045;-81
2022/04/22 03:17:45;;;;;;;11.52;3.50;;;;;;;8.36;100.00;101729.19;5072680;28;20053;-82
2022/04/22 03:20:11;;;;;;;9.30;2.65;;;;;;;8.37;100.00;101730.91;5071134;28;20061;-82
2022/04/22 03:22:38;;;;;;;9.63;4.03;;;;;;;8.31;100.00;101728.38;5072003;28;20393;-82
2022/04/22 03:25:06;;;;;;;9.43;3.33;;;;;;;8.48;100.00;101720.34;5070340;28;20049;-82
2022/04/22 03:27:32;;;;;;;9.82;3.53;;;;;;;8.60;100.00;101729.78;5070718;28;20057;-82
2022/04/22 03:30:02;;;;;;;8.55;3.20;;;;;;;8.52;100.00;101717.69;5070054;28;20414;-82
2022/04/22 03:32:30;;;;;;;13.75;5.07;;;;;;;8.50;100.00;101729.06;5085519;28;20618;-82
2022/04/22 03:34:57;;;;;;;12.32;5.05;;;;;;;8.73;100.00;101726.97;5075391;28;20048;-83
2022/04/22 03:37:24;;;;;;;13.30;5.28;;;;;;;8.64;100.00;101724.50;5075248;28;20717;-82
2022/04/22 03:39:51;;;;;;;11.00;5.07;;;;;;;8.73;100.00;101726.13;5064214;28;20044;-83
2022/04/22 03:42:17;;;;;;;10.65;4.78;;;;;;;8.66;100.00;101727.09;5066771;28;20056;-83
2022/04/22 03:44:44;;;;;;;18.55;6.95;;;;;;;8.43;100.00;101707.38;5087430;28;20045;-82
2022/04/22 03:47:11;;;;;;;15.30;6.65;;;;;;;8.57;100.00;101724.59;5054464;28;20049;-83
2022/04/22 03:49:38;;;;;;;16.65;6.20;;;;;;;8.81;100.00;101733.84;5059792;28;20475;-83
2022/04/22 03:52:05;;;;;;;10.32;5.20;;;;;;;8.79;100.00;101717.34;5074728;28;20052;-82
2022/04/22 03:54:32;;;;;;;15.85;6.45;;;;;;;8.78;100.00;101705.16;5074150;28;20904;-83
2022/04/22 03:59:44;;;;;;;14.57;5.18;;;;;;;8.77;100.00;101717.34;5074148;28;20048;-83
2022/04/22 04:02:11;;;;;;;18.05;8.30;;;;;;;8.24;100.00;101661.50;5073999;28;20413;-83
2022/04/22 04:04:38;;;;;;;12.77;6.35;;;;;;;8.47;100.00;101669.91;5075101;28;20144;-82
2022/04/22 04:07:05;;;;;;;18.75;7.90;;;;;;;8.52;100.00;101702.03;5075597;28;20671;-82
2022/04/22 04:17:48;;;;;;;17.27;7.75;;;;;;;8.38;100.00;101658.72;5055010;28;20061;-82
2022/04/22 04:23:15;;;;;;;16.92;8.07;;;;;;;8.67;100.00;101702.69;5055776;28;20497;-84
2022/04/22 04:25:43;;;;;;;14.85;7.88;;;;;;;8.42;100.00;101676.94;5053694;28;20459;-82
2022/04/22 04:28:11;;;;;;;15.88;8.30;;;;;;;8.34;100.00;101699.66;5055243;28;20510;-83
2022/04/22 04:30:39;;;;;;;17.13;8.75;;;;;;;8.22;100.00;101708.47;5065974;28;20132;-83
2022/04/22 04:33:07;;;;;;;21.70;10.20;;;;;;;8.21;100.00;101695.44;5074230;28;20553;-83
2022/04/22 04:35:35;;;;;;;18.55;9.95;;;;;;;8.06;100.00;101699.13;5074149;28;20045;-82
2022/04/22 04:38:02;;;;;;;23.45;10.32;;;;;;;8.10;100.00;101706.03;5074669;28;20063;-83
2022/04/22 04:40:29;;;;;;;23.08;11.77;;;;;;;7.78;100.00;101696.81;5073557;28;20136;-83
2022/04/22 04:42:56;;;;;;;21.90;11.55;;;;;;;7.70;100.00;101665.63;5072326;28;20063;-83
2022/04/22 04:45:22;;;;;;;20.85;10.45;;;;;;;7.47;100.00;101655.44;5073183;28;20048;-82
2022/04/22 04:47:49;;;;;;;24.85;13.35;;;;;;;7.91;100.00;101710.56;5075031;28;20072;-83
2022/04/22 04:50:16;;;;;;;24.80;11.90;;;;;;;7.53;100.00;101675.34;5072912;28;20410;-82
2022/04/22 04:52:43;;;;;;;24.67;12.13;;;;;;;7.49;100.00;101694.47;5074536;28;20053;-82
2022/04/22 04:55:13;;;;;;;28.85;13.60;;;;;;;7.51;100.00;101693.59;5072437;28;20054;-82
2022/04/22 04:57:41;;;;;;;25.80;13.27;;;;;;;7.54;100.00;101644.06;5053842;28;20455;-82
2022/04/22 05:00:16;;;;;;;23.25;11.88;;;;;;;7.95;100.00;101715.75;5061733;28;20094;-82
2022/04/22 05:02:44;;;;;;;21.92;12.00;;;;;;;7.93;100.00;101695.78;5064476;28;20135;-82
2022/04/22 05:05:12;;;;;;;19.58;10.40;;;;;;;8.12;100.00;101694.69;5095843;28;20124;-83
2022/04/22 05:07:57;;;;;;;28.85;13.10;;;;;;;8.14;100.00;101690.31;5066223;28;20048;-83
2022/04/22 05:10:26;;;;;;;25.50;14.13;;;;;;;8.06;100.00;101705.19;5059450;28;20045;-83
2022/04/22 05:12:54;;;;;;;24.70;12.80;;;;;;;8.14;100.00;101692.94;5063921;28;20048;-82
2022/04/22 05:15:22;;;;;;;20.15;11.98;;;;;;;8.26;100.00;101704.09;5064728;28;20524;-83
2022/04/22 05:17:50;;;;;;;26.30;12.88;;;;;;;7.77;100.00;101663.78;5067017;28;20066;-83
2022/04/22 05:20:20;;;;;;;27.95;14.77;;;;;;;8.04;100.00;101708.69;5087298;28;20051;-83
2022/04/22 05:22:47;;;;;;;28.52;13.75;;;;;;;8.26;100.00;101706.69;5063468;28;20080;-82
2022/04/22 05:25:15;;;;;;;19.58;11.45;;;;;;;8.41;100.00;101689.97;5062118;28;20040;-83
2022/04/22 05:27:42;;;;;;;23.95;13.25;;;;;;;8.46;100.00;101702.09;5063476;28;20483;-83
2022/04/22 05:32:56;;;;;;;25.92;14.43;;;;;;;8.07;100.00;101687.78;5068040;28;20110;-82
2022/04/22 05:35:27;;;;;;;26.88;13.07;;;;;;;8.23;100.00;101696.28;5071519;28;20051;-83
2022/04/22 05:38:05;;;;;;;30.83;13.40;;;;;;;8.12;100.00;101672.94;5068478;28;20071;-83
2022/04/22 05:40:36;;;;;;;29.38;15.00;;;;;;;8.21;100.00;101674.59;5064105;28;20056;-84
2022/04/22 05:43:06;;;;;;;22.90;11.27;;;;;;;8.71;100.00;101704.38;5072602;28;20127;-83
2022/04/22 05:45:34;;;;;;;29.10;13.43;;;;;;;8.49;100.00;101691.63;5072168;28;20526;-83
2022/04/22 05:48:01;;;;;;;23.27;12.68;;;;;;;8.68;100.00;101692.25;5061966;28;20060;-83
2022/04/22 05:50:28;;;;;;;23.92;13.93;;;;;;;8.45;100.00;101681.28;5071094;28;20425;-83
2022/04/22 05:52:56;;;;;;;20.38;11.90;;;;;;;8.49;100.00;101649.88;5073225;28;20135;-83
2022/04/22 05:55:25;;;;;;;20.92;11.68;;;;;;;8.81;100.00;101699.91;5070250;28;20132;-83
2022/04/22 05:57:53;;;;;;;28.20;13.50;;;;;;;8.16;100.00;101651.16;5072718;28;20054;-83
2022/04/22 06:00:23;;;;;;;22.63;13.63;;;;;;;8.44;100.00;101693.44;5070251;28;20585;-83
2022/04/22 06:02:52;;;;;;;23.30;13.48;;;;;;;8.58;100.00;101682.81;5069642;28;20114;-83
2022/04/22 06:05:20;;;;;;;23.65;13.18;;;;;;;8.85;100.00;101707.69;5070929;28;20040;-81
2022/04/22 06:10:31;;;;;;;27.13;15.00;;;;;;;8.59;100.00;101705.44;5062233;28;20132;-83
2022/04/22 06:10:36;;;;;;;27.48;13.73;;;;;;;8.68;100.00;101673.09;5058725;28;20084;-83
2022/04/22 06:13:04;;;;;;;23.35;13.75;;;;;;;9.10;100.00;101694.19;5065449;28;20163;-83
2022/04/22 06:15:31;;;;;;;25.90;14.50;;;;;;;8.91;100.00;101660.56;5066154;28;20072;-85
2022/04/22 06:17:59;;;;;;;31.67;15.10;;;;;;;9.06;100.00;101698.63;5065900;28;20051;-82
2022/04/22 06:20:26;;;;;;;28.67;14.52;;;;;;;9.09;100.00;101677.69;5067509;28;20049;-82
2022/04/22 06:22:53;;;;;;;25.75;13.85;;;;;;;9.09;100.00;101689.88;5063713;28;20084;-82
2022/04/22 06:25:20;;;;;;;21.55;12.60;;;;;;;9.31;100.00;101686.03;5092113;28;20045;-82
2022/04/22 06:27:47;;;;;;;27.42;14.70;;;;;;;9.39;100.00;101685.88;5059103;28;20083;-82
2022/04/22 06:30:16;;;;;;;24.27;13.85;;;;;;;9.60;100.00;101702.09;5060354;28;20052;-82
2022/04/22 06:32:45;;;;;;;21.58;11.63;;;;;;;10.53;100.00;101696.75;5059203;28;20433;-82
2022/04/22 06:35:14;;;;;;;31.02;16.05;;;;;;;10.68;100.00;101700.81;5062491;28;20048;-82
2022/04/22 06:37:43;;;;;;;25.50;14.23;;;;;;;10.88;100.00;101671.50;5089295;28;20084;-82
2022/04/22 06:45:48;;;;;;;26.77;13.60;;;;;;;11.24;100.00;101684.59;5060128;28;20063;-83
2022/04/22 06:48:30;;;;;;;22.90;12.20;;;;;;;11.89;100.00;101690.78;5064587;28;20041;-83
2022/04/22 06:51:16;;;;;;;24.40;13.43;;;;;;;11.63;100.00;101673.13;5063967;28;20044;-83
2022/04/22 06:53:45;;;;;;;17.48;9.82;;;;;;;11.40;100.00;101664.09;5063337;28;20040;-83
2022/04/22 06:56:13;;;;;;;23.90;13.02;;;;;;;11.29;100.00;101668.78;5061963;28;20051;-83
2022/04/22 06:58:41;;;;;;;23.73;12.55;;;;;;;11.43;100.00;101692.03;5058822;28;20526;-82
2022/04/22 07:01:09;;;;;;;28.58;12.10;;;;;;;11.49;100.00;101689.22;5064483;28;20462;-83
2022/04/22 07:03:57;;;;;;;22.20;11.48;;;;;;;11.49;100.00;101689.22;5070433;28;20934;-83
2022/04/22 07:06:25;;;;;;;25.55;11.77;;;;;;;11.88;100.00;101692.56;5069071;28;20144;-83
2022/04/22 07:08:52;;;;;;;19.42;10.82;;;;;;;11.76;100.00;101687.66;5069745;28;20071;-83
2022/04/22 07:11:24;;;;;;;21.50;10.35;;;;;;;12.13;100.00;101692.75;5069675;28;20677;-83
2022/04/22 07:13:53;;;;;;;20.80;9.35;;;;;;;12.05;100.00;101693.88;5050202;28;20057;-83
2022/04/22 07:16:20;;;;;;;18.77;8.02;;;;;;;12.29;100.00;101687.91;5049980;28;20120;-83
2022/04/22 07:18:47;;;;;;;22.20;9.32;;;;;;;12.15;100.00;101675.19;5065961;28;20106;-83
2022/04/22 07:21:15;;;;;;;23.75;10.35;;;;;;;12.07;100.00;101692.91;5066876;28;20119;-83
2022/04/22 07:23:42;;;;;;;17.02;8.13;;;;;;;12.34;100.00;101672.00;5069618;28;20084;-83
2022/04/22 07:26:10;;;;;;;20.75;8.25;;;;;;;12.13;100.00;101695.38;5069592;28;20548;-82
2022/04/22 07:28:38;;;;;;;20.63;7.82;;;;;;;11.95;100.00;101678.38;5069473;28;20084;-82
2022/04/22 07:31:09;;;;;;;15.90;7.13;;;;;;;12.32;100.00;101652.81;5071492;28;20087;-82
2022/04/22 07:33:36;;;;;;;17.17;6.32;;;;;;;13.25;100.00;101674.38;5071849;28;20483;-82
2022/04/22 07:36:03;;;;;;;27.73;7.38;;;;;;;13.40;100.00;101673.91;5062226;28;20120;-82
2022/04/22 07:38:30;;;;;;;15.73;6.43;;;;;;;13.58;100.00;101672.41;5069722;28;20040;-83
2022/04/22 07:40:57;;;;;;;18.20;7.28;;;;;;;13.66;100.00;101683.50;5070741;28;20048;-83
2022/04/22 07:48:56;;;;;;;17.50;5.68;;;;;;;13.91;100.00;101671.22;5051122;28;20071;-83
2022/04/22 07:51:25;;;;;;;17.85;6.10;;;;;;;13.72;100.00;101674.50;5066549;28;20060;-83
2022/04/22 07:53:55;;;;;;;16.65;5.30;;;;;;;13.64;100.00;101672.16;5069541;28;20057;-83
2022/04/22 07:56:23;;;;;;;19.45;6.30;;;;;;;14.15;100.00;101678.22;5051494;28;20526;-84
2022/04/22 07:58:50;;;;;;;14.90;4.90;;;;;;;13.70;100.00;101636.88;5068152;28;20136;-83
2022/04/22 08:01:17;;;;;;;16.23;5.45;;;;;;;13.90;100.00;101669.50;5070675;28;20732;-83
2022/04/22 08:03:44;;;;;;;14.80;5.93;;;;;;;13.94;100.00;101679.88;5071345;28;20079;-83
2022/04/22 08:06:12;;;;;;;20.30;5.72;;;;;;;13.39;100.00;101624.81;5069840;28;20571;-83
2022/04/22 08:08:39;;;;;;;16.40;4.68;;;;;;;13.95;100.00;101641.22;5070296;28;20052;-83
2022/04/22 08:11:06;;;;;;;17.23;5.35;;;;;;;14.41;100.00;101671.97;5060794;28;20064;-83
2022/04/22 08:13:35;;;;;;;17.85;5.30;;;;;;;14.43;100.00;101664.00;5073231;28;20051;-83
2022/04/22 08:16:02;;;;;;;14.18;4.68;;;;;;;14.80;100.00;101673.09;5071372;28;20546;-83
2022/04/22 08:18:30;;;;;;;16.02;5.78;;;;;;;15.08;100.00;101661.44;5072140;28;20059;-84
2022/04/22 08:20:57;;;;;;;18.60;5.43;;;;;;;15.13;100.00;101670.84;5073401;28;20052;-83
2022/04/22 08:23:23;;;;;;;21.25;5.60;;;;;;;14.99;100.00;101694.31;5074676;28;20413;-83
2022/04/22 08:25:50;;;;;;;21.30;5.60;;;;;;;13.66;100.00;101672.97;5074566;28;20518;-83
2022/04/22 08:28:17;;;;;;;23.80;7.13;;;;;;;13.45;100.00;101664.06;5072591;28;20058;-83
2022/04/22 08:30:44;;;;;;;24.00;5.65;;;;;;;14.97;100.00;101678.53;5075185;28;20131;-85
2022/04/22 08:33:11;;;;;;;17.15;5.07;;;;;;;14.32;100.00;101651.22;5074977;28;20048;-85
2022/04/22 08:35:38;;;;;;;16.90;6.13;;;;;;;14.18;100.00;101643.00;5074450;28;20048;-85
2022/04/22 08:38:06;;;;;;;20.27;5.65;;;;;;;14.95;100.00;101687.47;5074207;28;20060;-86
2022/04/22 08:40:37;;;;;;;19.58;6.03;;;;;;;14.61;100.00;101686.19;5074687;28;20045;-84
2022/04/22 08:43:06;;;;;;;16.02;5.70;;;;;;;15.08;100.00;101659.63;5073315;28;20068;-81
2022/04/22 08:45:33;;;;;;;21.63;6.32;;;;;;;14.47;100.00;101693.72;5074342;28;20049;-82
2022/04/22 08:50:53;;;;;;;22.00;5.72;;;;;;;14.33;100.00;101681.94;5073067;28;20049;-82
2022/04/22 08:53:23;;;;;;;25.88;7.35;;;;;;;13.80;100.00;101653.19;5074911;28;20049;-85
2022/04/22 08:55:56;;;;;;;22.50;6.30;;;;;;;14.14;100.00;101636.13;5066383;28;20056;-84
2022/04/22 08:58:27;;;;;;;15.93;5.35;;;;;;;13.99;100.00;101669.19;5070570;28;20432;-84
2022/04/22 09:00:58;;;;;;;22.02;6.18;;;;;;;14.03;100.00;101624.25;5073953;28;20143;-85
2022/04/22 09:03:29;;;;;;;30.00;5.95;;;;;;;14.41;100.00;101645.63;5074562;28;20056;-84
2022/04/22 09:05:56;;;;;;;21.05;6.10;;;;;;;14.69;100.00;101625.25;5073272;28;20044;-84
2022/04/22 09:08:28;;;;;;;15.10;5.00;;;;;;;15.22;100.00;101647.66;5073573;28;20063;-84
2022/04/22 09:10:56;;;;;;;21.55;5.45;;;;;;;14.86;100.00;101672.03;5073120;28;20048;-84
2022/04/22 09:13:26;;;;;;;21.83;5.85;;;;;;;14.96;100.00;101668.06;5074470;28;20989;-84
2022/04/22 09:15:54;;;;;;;19.05;6.07;;;;;;;14.78;100.00;101632.75;5079012;28;20044;-85
2022/04/22 09:18:39;;;;;;;18.85;5.68;;;;;;;14.79;100.00;101651.16;5093939;28;20044;-84
2022/04/22 09:21:17;;;;;;;18.55;5.90;;;;;;;14.71;100.00;101613.69;5077482;28;20433;-84
2022/04/22 09:23:48;;;;;;;19.98;5.95;;;;;;;14.43;100.00;101640.28;5073457;28;20048;-84
2022/04/22 09:26:26;;;;;;;20.33;5.85;;;;;;;14.59;100.00;101580.81;5073280;28;20045;-84
2022/04/22 09:29:01;;;;;;;21.33;5.95;;;;;;;15.48;100.00;101634.19;5073643;28;20078;-84
2022/04/22 09:31:29;;;;;;;26.10;6.38;;;;;;;15.44;100.00;101608.00;5073938;28;20045;-84
2022/04/22 09:33:56;;;;;;;17.25;6.32;;;;;;;15.18;100.00;101636.38;5074668;28;20052;-84
2022/04/22 09:45:07;;;;;;;20.85;6.57;;;;;;;14.63;100.00;101591.25;5074000;28;20049;-84
2022/04/22 09:47:36;;;;;;;17.55;5.22;;;;;;;15.22;100.00;101597.53;5074172;28;20084;-84
2022/04/22 09:50:08;;;;;;;15.38;4.90;;;;;;;16.03;99.85;101622.13;5072534;28;20051;-84
2022/04/22 09:52:35;;;;;;;13.27;4.63;;;;;;;15.59;100.00;101635.50;5074227;28;20071;-84
2022/04/22 09:55:07;;;;;;;15.43;5.57;;;;;;;15.61;100.00;101642.41;5074384;28;20067;-84
2022/04/22 09:57:57;;;;;;;19.08;5.47;;;;;;;15.16;100.00;101638.22;5074274;28;20402;-84
2022/04/22 10:00:29;;;;;;;19.45;5.28;;;;;;;15.21;100.00;101591.41;5072411;28;20131;-84
2022/04/22 10:02:56;;;;;;;18.83;5.53;;;;;;;15.80;97.74;101586.19;5072563;28;20056;-84
2022/04/22 10:05:24;;;;;;;16.67;4.40;;;;;;;15.87;93.76;101620.16;5073670;28;20051;-84
2022/04/22 10:07:55;;;;;;;17.55;4.60;;;;;;;16.27;93.46;101606.88;5073326;28;20513;-84
2022/04/22 10:10:42;;;;;;;15.25;4.97;;;;;;;16.37;91.78;101626.66;5070271;28;20126;-84
2022/04/22 10:13:17;;;;;;;18.38;5.00;;;;;;;16.13;92.98;101626.03;5068116;28;20045;-84
2022/04/22 10:15:50;;;;;;;18.13;5.53;;;;;;;15.87;90.61;101601.69;5071705;28;20139;-84
2022/04/22 10:18:17;;;;;;;13.30;4.88;;;;;;;15.50;94.47;101565.50;5072073;28;20397;-84
2022/04/22 10:20:44;;;;;;;21.02;5.78;;;;;;;16.29;89.68;101602.41;5065645;28;20056;-84
2022/04/22 10:23:11;;;;;;;16.20;4.57;;;;;;;16.21;90.76;101605.38;5071175;28;20053;-84
2022/04/22 10:25:39;;;;;;;14.57;4.00;;;;;;;16.92;88.51;101619.63;5072532;28;20048;-84
2022/04/22 10:28:08;;;;;;;21.67;5.35;;;;;;;16.36;90.63;101605.56;5071384;28;20098;-84
2022/04/22 10:30:37;;;;;;;20.52;5.30;;;;;;;16.17;89.52;101592.41;5071772;28;20074;-84
2022/04/22 10:33:05;;;;;;;17.20;5.38;;;;;;;16.07;90.74;101574.34;5073062;28;20452;-84
2022/04/22 10:35:38;;;;;;;16.52;5.35;;;;;;;15.83;89.82;101584.28;5072493;28;20047;-84
2022/04/22 10:38:04;;;;;;;22.42;6.25;;;;;;;16.38;89.37;101578.16;5072104;28;20074;-84
2022/04/22 10:40:31;;;;;;;16.55;4.90;;;;;;;16.12;91.43;101572.34;5069967;28;20044;-84
2022/04/22 10:43:00;;;;;;;23.73;5.65;;;;;;;16.31;89.67;101572.31;5072725;28;20159;-84
2022/04/22 10:48:27;;;;;;;20.45;5.38;;;;;;;16.45;89.54;101605.13;5072799;28;20448;-84
2022/04/22 10:50:58;;;;;;;20.02;5.35;;;;;;;16.46;87.71;101586.56;5070283;28;20056;-85
2022/04/22 10:53:27;;;;;;;14.40;4.97;;;;;;;16.45;86.57;101578.69;5052159;28;20055;-84
2022/04/22 10:56:26;;;;;;;17.85;4.20;;;;;;;17.20;83.93;101600.56;5051423;28;20048;-84
2022/04/22 10:59:21;;;;;;;18.42;5.40;;;;;;;16.96;86.37;101597.38;5051783;28;20059;-84
2022/04/22 11:01:48;;;;;;;15.77;4.68;;;;;;;17.06;85.31;101562.44;5070599;28;20102;-84
2022/04/22 11:04:18;;;;;;;19.02;4.40;;;;;;;16.87;81.18;101581.06;5072609;28;20048;-85
2022/04/22 11:06:46;;;;;;;15.98;4.47;;;;;;;17.13;81.27;101588.59;5070973;28;20127;-84
2022/04/22 11:09:30;;;;;;;20.33;5.78;;;;;;;16.95;83.64;101596.53;5054839;28;20143;-84
2022/04/22 11:11:58;;;;;;;16.35;4.68;;;;;;;17.46;83.63;101578.88;5070344;28;20143;-85
2022/04/22 11:14:27;;;;;;;17.08;5.32;;;;;;;17.58;79.83;101577.38;5091513;28;20046;-85
2022/04/22 11:16:56;;;;;;;16.83;4.63;;;;;;;17.80;80.17;101586.81;5091309;28;20401;-85
2022/04/22 11:19:25;;;;;;;14.57;5.25;;;;;;;17.27;81.21;101559.59;5087476;28;20052;-84
2022/04/22 11:21:55;;;;;;;20.85;5.65;;;;;;;17.05;79.68;101558.09;5071716;28;20059;-85
2022/04/22 11:24:24;;;;;;;18.77;5.05;;;;;;;17.04;80.96;101535.19;5070876;28;20560;-85
2022/04/22 11:26:52;;;;;;;18.33;5.05;;;;;;;17.13;81.63;101525.09;5070951;28;20043;-84
2022/04/22 11:29:20;;;;;;;19.33;5.82;;;;;;;17.71;80.67;101564.31;5069792;28;20049;-84
2022/04/22 11:31:57;;;;;;;20.90;5.03;;;;;;;18.03;77.68;101541.38;5071327;28;20067;-84
2022/04/22 11:34:54;;;;;;;21.17;5.80;;;;;;;17.97;80.44;101554.97;5070866;28;20053;-84
2022/04/22 11:37:22;;;;;;;23.83;4.80;;;;;;;18.23;77.90;101549.97;5070639;28;20135;-84
2022/04/22 11:39:50;;;;;;;14.27;4.07;;;;;;;18.17;70.29;101593.59;5069123;28;20053;-85
2022/04/22 11:42:18;;;;;;;14.07;3.95;;;;;;;18.40;74.15;101581.69;5071615;28;20550;-84
2022/04/22 11:45:06;;;;;;;19.15;4.47;;;;;;;18.47;75.55;101552.16;5070516;28;20056;-84
2022/04/22 11:47:33;;;;;;;23.13;5.63;;;;;;;18.19;76.29;101527.25;5069645;28;20098;-84
2022/04/22 11:50:00;;;;;;;15.50;4.72;;;;;;;18.12;75.96;101533.84;5068419;28;20048;-84
2022/04/22 11:52:30;;;;;;;16.63;4.78;;;;;;;18.39;76.60;101521.63;5071716;28;20112;-84
2022/04/22 11:55:05;;;;;;;18.58;4.13;;;;;;;18.43;74.44;101566.53;5074321;28;20056;-84
2022/04/22 11:57:39;;;;;;;18.65;4.45;;;;;;;18.60;75.07;101563.78;5073496;28;20048;-84
2022/04/22 12:05:48;;;;;;;18.67;5.43;;;;;;;18.84;74.67;101555.34;5073972;28;20052;-84
2022/04/22 12:08:16;;;;;;;20.35;5.72;;;;;;;18.49;73.29;101568.84;5073282;28;20053;-85
2022/04/22 12:10:48;;;;;;;15.35;4.43;;;;;;;18.41;75.58;101585.19;5071889;28;20054;-84
2022/04/22 12:13:16;;;;;;;23.30;5.53;;;;;;;17.88;76.85;101563.41;5064522;28;20136;-85
2022/04/22 12:15:46;;;;;;;15.75;4.72;;;;;;;18.01;77.06;101587.44;5054236;28;20282;-84
2022/04/22 12:18:33;;;;;;;21.65;5.43;;;;;;;17.80;77.30;101589.44;5070619;28;20072;-84
2022/04/22 12:21:01;;;;;;;20.10;5.22;;;;;;;17.80;75.62;101547.06;5072277;28;20059;-84
2022/04/22 12:23:36;;;;;;;20.65;4.75;;;;;;;17.81;75.94;101564.66;5073663;28;20048;-84